Terminal Aerodrome Forecast
Issued by NWS Paducah, KY

Home | Current Version | Previous Version | Text Only | Print | Product List | Glossary On
Versions: 1 2 3 4 5 6 7 8 9 10 11 12 13
897
FTUS43 KPAH 031608 AAA
TAFEVV
TAF AMD
KEVV 031608Z 0316/0412 25016G23KT P6SM SKC
     FM031930 28012G19KT P6SM OVC025
     FM040000 29006KT P6SM BKN035=

USA.gov is the U.S. government's official web portal to all federal, state and local government web resources and services.